sensor_id;sensor_type;location;lat;lon;timestamp;P1;durP1;ratioP1;P2;durP2;ratioP2
57720;SDS011;43562;43.064;0.160;2022-09-23T00:01:19;9.10;;;3.75;;
57720;SDS011;43562;43.064;0.160;2022-09-23T00:03:46;7.70;;;3.80;;
57720;SDS011;43562;43.064;0.160;2022-09-23T00:06:17;6.50;;;2.90;;
57720;SDS011;43562;43.064;0.160;2022-09-23T00:08:43;4.68;;;2.88;;
57720;SDS011;43562;43.064;0.160;2022-09-23T00:11:10;5.57;;;3.17;;
57720;SDS011;43562;43.064;0.160;2022-09-23T00:13:37;8.65;;;3.40;;
57720;SDS011;43562;43.064;0.160;2022-09-23T00:16:04;9.25;;;3.40;;
57720;SDS011;43562;43.064;0.160;2022-09-23T00:18:31;6.45;;;3.20;;
57720;SDS011;43562;43.064;0.160;2022-09-23T00:21:00;7.45;;;3.50;;
57720;SDS011;43562;43.064;0.160;2022-09-23T00:23:27;3.35;;;2.45;;
57720;SDS011;43562;43.064;0.160;2022-09-23T00:25:57;8.23;;;3.13;;
57720;SDS011;43562;43.064;0.160;2022-09-23T00:28:24;4.68;;;2.80;;
57720;SDS011;43562;43.064;0.160;2022-09-23T00:30:50;3.97;;;2.45;;
57720;SDS011;43562;43.064;0.160;2022-09-23T00:33:17;2.45;;;2.25;;
57720;SDS011;43562;43.064;0.160;2022-09-23T00:35:43;5.20;;;2.67;;
57720;SDS011;43562;43.064;0.160;2022-09-23T00:38:09;5.28;;;2.45;;
57720;SDS011;43562;43.064;0.160;2022-09-23T00:40:40;4.43;;;2.75;;
57720;SDS011;43562;43.064;0.160;2022-09-23T00:43:08;2.83;;;2.13;;
57720;SDS011;43562;43.064;0.160;2022-09-23T00:45:35;5.25;;;2.60;;
57720;SDS011;43562;43.064;0.160;2022-09-23T00:48:01;5.82;;;2.58;;
57720;SDS011;43562;43.064;0.160;2022-09-23T00:52:58;5.13;;;2.58;;
57720;SDS011;43562;43.064;0.160;2022-09-23T00:55:27;3.78;;;2.88;;
57720;SDS011;43562;43.064;0.160;2022-09-23T00:57:54;5.78;;;2.97;;
57720;SDS011;43562;43.064;0.160;2022-09-23T01:00:21;6.30;;;2.60;;
57720;SDS011;43562;43.064;0.160;2022-09-23T01:02:48;4.80;;;2.88;;
57720;SDS011;43562;43.064;0.160;2022-09-23T01:05:14;4.93;;;2.95;;
57720;SDS011;43562;43.064;0.160;2022-09-23T01:07:41;5.35;;;2.70;;
57720;SDS011;43562;43.064;0.160;2022-09-23T01:10:08;5.05;;;3.10;;
57720;SDS011;43562;43.064;0.160;2022-09-23T01:12:48;4.97;;;2.85;;
57720;SDS011;43562;43.064;0.160;2022-09-23T01:15:26;4.95;;;2.80;;
57720;SDS011;43562;43.064;0.160;2022-09-23T01:23:12;3.50;;;2.53;;
57720;SDS011;43562;43.064;0.160;2022-09-23T01:31:03;4.95;;;2.78;;
57720;SDS011;43562;43.064;0.160;2022-09-23T01:36:05;6.68;;;2.90;;
57720;SDS011;43562;43.064;0.160;2022-09-23T01:41:03;10.27;;;2.78;;
57720;SDS011;43562;43.064;0.160;2022-09-23T01:46:06;2.92;;;2.47;;
57720;SDS011;43562;43.064;0.160;2022-09-23T01:51:28;5.93;;;2.60;;
57720;SDS011;43562;43.064;0.160;2022-09-23T01:56:23;3.45;;;3.15;;
57720;SDS011;43562;43.064;0.160;2022-09-23T01:58:58;4.93;;;2.75;;
57720;SDS011;43562;43.064;0.160;2022-09-23T02:04:21;7.45;;;3.63;;
57720;SDS011;43562;43.064;0.160;2022-09-23T02:09:41;6.07;;;3.08;;
57720;SDS011;43562;43.064;0.160;2022-09-23T02:12:09;8.32;;;3.35;;
57720;SDS011;43562;43.064;0.160;2022-09-23T02:14:39;7.57;;;2.75;;
57720;SDS011;43562;43.064;0.160;2022-09-23T02:17:11;6.78;;;3.05;;
57720;SDS011;43562;43.064;0.160;2022-09-23T02:22:11;3.42;;;2.80;;
57720;SDS011;43562;43.064;0.160;2022-09-23T02:24:39;5.22;;;3.08;;
57720;SDS011;43562;43.064;0.160;2022-09-23T02:29:59;4.22;;;2.55;;
57720;SDS011;43562;43.064;0.160;2022-09-23T02:34:58;3.92;;;2.90;;
57720;SDS011;43562;43.064;0.160;2022-09-23T02:43:03;3.20;;;2.90;;
57720;SDS011;43562;43.064;0.160;2022-09-23T02:45:26;4.68;;;3.38;;
57720;SDS011;43562;43.064;0.160;2022-09-23T02:47:54;9.05;;;3.33;;
57720;SDS011;43562;43.064;0.160;2022-09-23T02:50:22;4.75;;;2.88;;
57720;SDS011;43562;43.064;0.160;2022-09-23T02:52:48;8.40;;;3.30;;
57720;SDS011;43562;43.064;0.160;2022-09-23T02:55:14;3.88;;;2.65;;
57720;SDS011;43562;43.064;0.160;2022-09-23T02:57:41;6.15;;;2.80;;
57720;SDS011;43562;43.064;0.160;2022-09-23T03:00:07;4.80;;;2.70;;
57720;SDS011;43562;43.064;0.160;2022-09-23T03:02:44;6.45;;;2.70;;
57720;SDS011;43562;43.064;0.160;2022-09-23T03:05:18;7.28;;;3.72;;
57720;SDS011;43562;43.064;0.160;2022-09-23T03:10:15;4.43;;;3.50;;
57720;SDS011;43562;43.064;0.160;2022-09-23T03:12:46;5.65;;;3.60;;
57720;SDS011;43562;43.064;0.160;2022-09-23T03:15:30;3.40;;;2.95;;
57720;SDS011;43562;43.064;0.160;2022-09-23T03:20:32;5.82;;;3.72;;
57720;SDS011;43562;43.064;0.160;2022-09-23T03:23:02;5.65;;;3.58;;
57720;SDS011;43562;43.064;0.160;2022-09-23T03:25:30;8.10;;;3.63;;
57720;SDS011;43562;43.064;0.160;2022-09-23T03:27:58;7.70;;;3.70;;
57720;SDS011;43562;43.064;0.160;2022-09-23T03:30:25;6.53;;;3.97;;
57720;SDS011;43562;43.064;0.160;2022-09-23T03:32:51;7.88;;;3.72;;
57720;SDS011;43562;43.064;0.160;2022-09-23T03:35:19;6.97;;;4.03;;
57720;SDS011;43562;43.064;0.160;2022-09-23T03:37:49;6.75;;;3.85;;
57720;SDS011;43562;43.064;0.160;2022-09-23T03:45:18;3.60;;;3.25;;
57720;SDS011;43562;43.064;0.160;2022-09-23T03:47:46;6.30;;;3.30;;
57720;SDS011;43562;43.064;0.160;2022-09-23T03:50:12;11.90;;;5.00;;
57720;SDS011;43562;43.064;0.160;2022-09-23T03:52:41;7.35;;;4.47;;
57720;SDS011;43562;43.064;0.160;2022-09-23T03:55:08;6.53;;;4.13;;
57720;SDS011;43562;43.064;0.160;2022-09-23T03:57:34;8.23;;;5.32;;
57720;SDS011;43562;43.064;0.160;2022-09-23T04:00:01;9.50;;;4.40;;
57720;SDS011;43562;43.064;0.160;2022-09-23T04:02:27;8.10;;;3.88;;
57720;SDS011;43562;43.064;0.160;2022-09-23T04:04:53;5.82;;;3.80;;
57720;SDS011;43562;43.064;0.160;2022-09-23T04:07:20;5.60;;;3.72;;
57720;SDS011;43562;43.064;0.160;2022-09-23T04:09:46;8.38;;;4.35;;
57720;SDS011;43562;43.064;0.160;2022-09-23T04:12:13;9.90;;;3.80;;
57720;SDS011;43562;43.064;0.160;2022-09-23T04:14:39;6.93;;;3.80;;
57720;SDS011;43562;43.064;0.160;2022-09-23T04:17:05;6.50;;;3.45;;
57720;SDS011;43562;43.064;0.160;2022-09-23T04:19:32;6.28;;;3.35;;
57720;SDS011;43562;43.064;0.160;2022-09-23T04:21:58;4.38;;;3.10;;
57720;SDS011;43562;43.064;0.160;2022-09-23T04:24:24;4.75;;;3.60;;
57720;SDS011;43562;43.064;0.160;2022-09-23T04:26:51;7.13;;;3.88;;
57720;SDS011;43562;43.064;0.160;2022-09-23T04:29:17;6.70;;;3.35;;
57720;SDS011;43562;43.064;0.160;2022-09-23T04:31:43;6.00;;;3.42;;
57720;SDS011;43562;43.064;0.160;2022-09-23T04:34:10;3.92;;;3.17;;
57720;SDS011;43562;43.064;0.160;2022-09-23T04:36:36;3.90;;;3.50;;
57720;SDS011;43562;43.064;0.160;2022-09-23T04:39:03;4.60;;;3.10;;
57720;SDS011;43562;43.064;0.160;2022-09-23T04:41:29;6.20;;;3.63;;
57720;SDS011;43562;43.064;0.160;2022-09-23T04:43:55;5.00;;;3.63;;
57720;SDS011;43562;43.064;0.160;2022-09-23T04:46:22;5.35;;;3.50;;
57720;SDS011;43562;43.064;0.160;2022-09-23T04:48:48;4.20;;;3.65;;
57720;SDS011;43562;43.064;0.160;2022-09-23T04:51:15;4.45;;;3.83;;
57720;SDS011;43562;43.064;0.160;2022-09-23T04:53:42;7.15;;;4.15;;
57720;SDS011;43562;43.064;0.160;2022-09-23T04:56:18;5.13;;;3.60;;
57720;SDS011;43562;43.064;0.160;2022-09-23T04:58:45;6.15;;;4.10;;
57720;SDS011;43562;43.064;0.160;2022-09-23T05:01:18;7.63;;;3.95;;
57720;SDS011;43562;43.064;0.160;2022-09-23T05:03:48;4.55;;;3.72;;
57720;SDS011;43562;43.064;0.160;2022-09-23T05:06:14;5.50;;;3.40;;
57720;SDS011;43562;43.064;0.160;2022-09-23T05:08:41;5.13;;;3.67;;
57720;SDS011;43562;43.064;0.160;2022-09-23T05:11:07;4.32;;;3.55;;
57720;SDS011;43562;43.064;0.160;2022-09-23T05:13:33;5.95;;;4.03;;
57720;SDS011;43562;43.064;0.160;2022-09-23T05:16:00;5.90;;;3.40;;
57720;SDS011;43562;43.064;0.160;2022-09-23T05:18:29;7.45;;;3.63;;
57720;SDS011;43562;43.064;0.160;2022-09-23T05:20:56;3.97;;;3.33;;
57720;SDS011;43562;43.064;0.160;2022-09-23T05:23:22;5.80;;;3.63;;
57720;SDS011;43562;43.064;0.160;2022-09-23T05:25:54;4.07;;;3.38;;
57720;SDS011;43562;43.064;0.160;2022-09-23T05:28:21;6.70;;;4.57;;
57720;SDS011;43562;43.064;0.160;2022-09-23T05:30:47;5.65;;;3.90;;
57720;SDS011;43562;43.064;0.160;2022-09-23T05:33:13;4.75;;;4.22;;
57720;SDS011;43562;43.064;0.160;2022-09-23T05:35:44;5.90;;;3.55;;
57720;SDS011;43562;43.064;0.160;2022-09-23T05:38:10;4.72;;;3.67;;
57720;SDS011;43562;43.064;0.160;2022-09-23T05:40:36;4.78;;;3.38;;
57720;SDS011;43562;43.064;0.160;2022-09-23T05:43:02;5.13;;;3.78;;
57720;SDS011;43562;43.064;0.160;2022-09-23T05:45:29;8.73;;;4.03;;
57720;SDS011;43562;43.064;0.160;2022-09-23T05:47:56;6.10;;;3.90;;
57720;SDS011;43562;43.064;0.160;2022-09-23T05:50:22;5.65;;;3.75;;
57720;SDS011;43562;43.064;0.160;2022-09-23T05:52:48;6.38;;;4.00;;
57720;SDS011;43562;43.064;0.160;2022-09-23T05:55:14;5.78;;;4.13;;
57720;SDS011;43562;43.064;0.160;2022-09-23T05:57:40;8.85;;;3.97;;
57720;SDS011;43562;43.064;0.160;2022-09-23T06:00:07;6.53;;;4.18;;
57720;SDS011;43562;43.064;0.160;2022-09-23T06:02:33;6.45;;;3.92;;
57720;SDS011;43562;43.064;0.160;2022-09-23T06:04:59;5.53;;;4.03;;
57720;SDS011;43562;43.064;0.160;2022-09-23T06:07:25;6.70;;;3.92;;
57720;SDS011;43562;43.064;0.160;2022-09-23T06:09:52;8.73;;;4.80;;
57720;SDS011;43562;43.064;0.160;2022-09-23T06:12:18;9.32;;;4.88;;
57720;SDS011;43562;43.064;0.160;2022-09-23T06:14:45;12.63;;;5.40;;
57720;SDS011;43562;43.064;0.160;2022-09-23T06:17:12;14.57;;;5.97;;
57720;SDS011;43562;43.064;0.160;2022-09-23T06:19:38;10.82;;;5.88;;
57720;SDS011;43562;43.064;0.160;2022-09-23T06:22:04;13.57;;;6.07;;
57720;SDS011;43562;43.064;0.160;2022-09-23T06:24:30;15.23;;;6.85;;
57720;SDS011;43562;43.064;0.160;2022-09-23T06:26:56;11.23;;;5.57;;
57720;SDS011;43562;43.064;0.160;2022-09-23T06:29:22;18.08;;;6.05;;
57720;SDS011;43562;43.064;0.160;2022-09-23T06:31:48;8.85;;;4.95;;
57720;SDS011;43562;43.064;0.160;2022-09-23T06:34:14;9.77;;;5.30;;
57720;SDS011;43562;43.064;0.160;2022-09-23T06:36:41;11.90;;;5.63;;
57720;SDS011;43562;43.064;0.160;2022-09-23T06:39:07;10.43;;;5.30;;
57720;SDS011;43562;43.064;0.160;2022-09-23T06:41:33;8.20;;;4.68;;
57720;SDS011;43562;43.064;0.160;2022-09-23T06:44:00;15.27;;;5.00;;
57720;SDS011;43562;43.064;0.160;2022-09-23T06:46:26;9.68;;;4.63;;
57720;SDS011;43562;43.064;0.160;2022-09-23T06:48:52;7.78;;;4.20;;
57720;SDS011;43562;43.064;0.160;2022-09-23T06:51:18;6.63;;;4.43;;
57720;SDS011;43562;43.064;0.160;2022-09-23T06:53:46;13.32;;;5.53;;
57720;SDS011;43562;43.064;0.160;2022-09-23T06:56:12;8.70;;;4.60;;
57720;SDS011;43562;43.064;0.160;2022-09-23T06:58:38;11.23;;;5.53;;
57720;SDS011;43562;43.064;0.160;2022-09-23T07:01:12;14.45;;;6.32;;
57720;SDS011;43562;43.064;0.160;2022-09-23T07:03:42;17.10;;;6.75;;
57720;SDS011;43562;43.064;0.160;2022-09-23T07:06:08;22.25;;;8.27;;
57720;SDS011;43562;43.064;0.160;2022-09-23T07:08:35;16.30;;;6.22;;
57720;SDS011;43562;43.064;0.160;2022-09-23T07:11:02;18.48;;;5.65;;
57720;SDS011;43562;43.064;0.160;2022-09-23T07:13:28;12.55;;;4.97;;
57720;SDS011;43562;43.064;0.160;2022-09-23T07:15:56;12.25;;;5.32;;
57720;SDS011;43562;43.064;0.160;2022-09-23T07:18:24;12.48;;;5.22;;
57720;SDS011;43562;43.064;0.160;2022-09-23T07:20:51;7.13;;;4.63;;
57720;SDS011;43562;43.064;0.160;2022-09-23T07:23:17;12.18;;;5.85;;
57720;SDS011;43562;43.064;0.160;2022-09-23T07:25:44;7.78;;;4.63;;
57720;SDS011;43562;43.064;0.160;2022-09-23T07:28:16;14.32;;;5.15;;
57720;SDS011;43562;43.064;0.160;2022-09-23T07:30:43;9.38;;;4.60;;
57720;SDS011;43562;43.064;0.160;2022-09-23T07:33:09;9.73;;;5.22;;
57720;SDS011;43562;43.064;0.160;2022-09-23T07:35:38;7.80;;;4.50;;
57720;SDS011;43562;43.064;0.160;2022-09-23T07:38:05;11.40;;;4.90;;
57720;SDS011;43562;43.064;0.160;2022-09-23T07:40:31;10.82;;;4.85;;
57720;SDS011;43562;43.064;0.160;2022-09-23T07:42:57;6.72;;;4.38;;
57720;SDS011;43562;43.064;0.160;2022-09-23T07:45:23;9.23;;;5.13;;
57720;SDS011;43562;43.064;0.160;2022-09-23T07:47:51;6.57;;;4.65;;
57720;SDS011;43562;43.064;0.160;2022-09-23T07:50:17;6.57;;;4.63;;
57720;SDS011;43562;43.064;0.160;2022-09-23T07:52:43;7.82;;;4.30;;
57720;SDS011;43562;43.064;0.160;2022-09-23T07:55:09;11.73;;;4.90;;
57720;SDS011;43562;43.064;0.160;2022-09-23T07:57:35;6.63;;;4.57;;
57720;SDS011;43562;43.064;0.160;2022-09-23T08:00:02;8.50;;;4.20;;
57720;SDS011;43562;43.064;0.160;2022-09-23T08:02:28;6.65;;;4.55;;
57720;SDS011;43562;43.064;0.160;2022-09-23T08:04:55;6.78;;;4.30;;
57720;SDS011;43562;43.064;0.160;2022-09-23T08:07:21;5.05;;;3.97;;
57720;SDS011;43562;43.064;0.160;2022-09-23T08:09:47;4.72;;;4.03;;
57720;SDS011;43562;43.064;0.160;2022-09-23T08:12:15;7.20;;;4.72;;
57720;SDS011;43562;43.064;0.160;2022-09-23T08:14:42;6.50;;;4.20;;
57720;SDS011;43562;43.064;0.160;2022-09-23T08:17:08;6.35;;;4.15;;
57720;SDS011;43562;43.064;0.160;2022-09-23T08:19:35;7.28;;;3.95;;
57720;SDS011;43562;43.064;0.160;2022-09-23T08:22:01;4.43;;;4.00;;
57720;SDS011;43562;43.064;0.160;2022-09-23T08:24:27;5.22;;;3.95;;
57720;SDS011;43562;43.064;0.160;2022-09-23T08:26:54;4.78;;;3.50;;
57720;SDS011;43562;43.064;0.160;2022-09-23T08:29:21;4.18;;;3.35;;
57720;SDS011;43562;43.064;0.160;2022-09-23T08:31:48;4.13;;;3.40;;
57720;SDS011;43562;43.064;0.160;2022-09-23T08:34:18;3.83;;;3.40;;
57720;SDS011;43562;43.064;0.160;2022-09-23T08:36:45;7.18;;;3.75;;
57720;SDS011;43562;43.064;0.160;2022-09-23T08:39:15;4.38;;;3.40;;
57720;SDS011;43562;43.064;0.160;2022-09-23T08:46:55;7.03;;;3.65;;
57720;SDS011;43562;43.064;0.160;2022-09-23T08:49:26;6.80;;;4.10;;
57720;SDS011;43562;43.064;0.160;2022-09-23T08:51:55;6.40;;;3.65;;
57720;SDS011;43562;43.064;0.160;2022-09-23T08:54:24;6.50;;;3.20;;
57720;SDS011;43562;43.064;0.160;2022-09-23T08:56:53;7.03;;;3.50;;
57720;SDS011;43562;43.064;0.160;2022-09-23T08:59:24;3.97;;;3.60;;
57720;SDS011;43562;43.064;0.160;2022-09-23T09:01:59;6.63;;;3.50;;
57720;SDS011;43562;43.064;0.160;2022-09-23T09:04:27;7.78;;;3.75;;
57720;SDS011;43562;43.064;0.160;2022-09-23T09:07:02;3.80;;;2.92;;
57720;SDS011;43562;43.064;0.160;2022-09-23T09:09:29;4.68;;;3.10;;
57720;SDS011;43562;43.064;0.160;2022-09-23T09:14:36;3.22;;;2.92;;
57720;SDS011;43562;43.064;0.160;2022-09-23T09:17:51;3.22;;;2.70;;
57720;SDS011;43562;43.064;0.160;2022-09-23T09:25:04;4.07;;;2.38;;
57720;SDS011;43562;43.064;0.160;2022-09-23T09:27:35;4.18;;;2.70;;
57720;SDS011;43562;43.064;0.160;2022-09-23T09:30:03;3.83;;;2.72;;
57720;SDS011;43562;43.064;0.160;2022-09-23T09:32:37;2.85;;;2.55;;
57720;SDS011;43562;43.064;0.160;2022-09-23T09:37:57;3.50;;;2.90;;
57720;SDS011;43562;43.064;0.160;2022-09-23T09:40:23;5.45;;;2.78;;
57720;SDS011;43562;43.064;0.160;2022-09-23T09:42:49;2.92;;;2.67;;
57720;SDS011;43562;43.064;0.160;2022-09-23T09:48:00;3.60;;;2.53;;
57720;SDS011;43562;43.064;0.160;2022-09-23T09:55:50;7.68;;;2.67;;
57720;SDS011;43562;43.064;0.160;2022-09-23T09:58:22;10.43;;;2.85;;
57720;SDS011;43562;43.064;0.160;2022-09-23T10:00:48;4.85;;;2.70;;
57720;SDS011;43562;43.064;0.160;2022-09-23T10:10:58;4.38;;;2.70;;
57720;SDS011;43562;43.064;0.160;2022-09-23T10:13:25;4.22;;;2.88;;
57720;SDS011;43562;43.064;0.160;2022-09-23T10:15:51;3.30;;;2.25;;
57720;SDS011;43562;43.064;0.160;2022-09-23T10:18:22;14.75;;;3.20;;
57720;SDS011;43562;43.064;0.160;2022-09-23T10:20:50;5.75;;;2.67;;
57720;SDS011;43562;43.064;0.160;2022-09-23T10:23:17;7.65;;;2.88;;
57720;SDS011;43562;43.064;0.160;2022-09-23T10:28:46;4.47;;;2.67;;
57720;SDS011;43562;43.064;0.160;2022-09-23T10:31:15;2.60;;;2.40;;
57720;SDS011;43562;43.064;0.160;2022-09-23T10:33:48;5.28;;;2.45;;
57720;SDS011;43562;43.064;0.160;2022-09-23T10:36:15;3.70;;;2.60;;
57720;SDS011;43562;43.064;0.160;2022-09-23T10:38:42;3.78;;;2.30;;
57720;SDS011;43562;43.064;0.160;2022-09-23T10:41:12;3.53;;;2.50;;
57720;SDS011;43562;43.064;0.160;2022-09-23T11:00:07;3.45;;;2.47;;
57720;SDS011;43562;43.064;0.160;2022-09-23T11:02:57;3.67;;;2.75;;
57720;SDS011;43562;43.064;0.160;2022-09-23T11:05:32;4.05;;;2.75;;
57720;SDS011;43562;43.064;0.160;2022-09-23T11:10:49;3.90;;;2.40;;
57720;SDS011;43562;43.064;0.160;2022-09-23T11:29:36;3.13;;;2.83;;
57720;SDS011;43562;43.064;0.160;2022-09-23T11:35:18;6.63;;;3.03;;
57720;SDS011;43562;43.064;0.160;2022-09-23T11:37:47;5.40;;;2.95;;
57720;SDS011;43562;43.064;0.160;2022-09-23T11:40:19;4.32;;;2.63;;
57720;SDS011;43562;43.064;0.160;2022-09-23T11:42:52;4.63;;;2.78;;
57720;SDS011;43562;43.064;0.160;2022-09-23T11:45:27;7.05;;;3.17;;
57720;SDS011;43562;43.064;0.160;2022-09-23T11:48:04;5.13;;;3.00;;
57720;SDS011;43562;43.064;0.160;2022-09-23T11:50:43;2.95;;;2.60;;
57720;SDS011;43562;43.064;0.160;2022-09-23T11:53:19;3.58;;;2.75;;
57720;SDS011;43562;43.064;0.160;2022-09-23T11:55:59;5.68;;;2.90;;
57720;SDS011;43562;43.064;0.160;2022-09-23T11:58:32;10.18;;;3.28;;
57720;SDS011;43562;43.064;0.160;2022-09-23T12:01:01;5.18;;;3.20;;
57720;SDS011;43562;43.064;0.160;2022-09-23T12:03:45;5.18;;;3.58;;
57720;SDS011;43562;43.064;0.160;2022-09-23T12:06:34;4.22;;;3.20;;
57720;SDS011;43562;43.064;0.160;2022-09-23T12:09:00;3.47;;;2.60;;
57720;SDS011;43562;43.064;0.160;2022-09-23T12:11:39;6.55;;;2.95;;
57720;SDS011;43562;43.064;0.160;2022-09-23T12:14:18;7.57;;;3.03;;
57720;SDS011;43562;43.064;0.160;2022-09-23T12:26:59;9.50;;;3.30;;
57720;SDS011;43562;43.064;0.160;2022-09-23T12:29:29;4.15;;;2.90;;
57720;SDS011;43562;43.064;0.160;2022-09-23T12:31:56;4.35;;;3.30;;
57720;SDS011;43562;43.064;0.160;2022-09-23T12:36:51;4.80;;;3.15;;
57720;SDS011;43562;43.064;0.160;2022-09-23T12:39:51;6.68;;;2.97;;
57720;SDS011;43562;43.064;0.160;2022-09-23T12:42:14;4.55;;;3.08;;
57720;SDS011;43562;43.064;0.160;2022-09-23T12:44:42;3.55;;;2.95;;
57720;SDS011;43562;43.064;0.160;2022-09-23T12:47:29;5.32;;;2.90;;
57720;SDS011;43562;43.064;0.160;2022-09-23T12:49:55;4.03;;;3.10;;
57720;SDS011;43562;43.064;0.160;2022-09-23T12:52:23;4.00;;;3.20;;
57720;SDS011;43562;43.064;0.160;2022-09-23T12:54:50;4.55;;;2.90;;
57720;SDS011;43562;43.064;0.160;2022-09-23T13:02:56;6.60;;;3.00;;
57720;SDS011;43562;43.064;0.160;2022-09-23T13:05:49;6.32;;;2.85;;
57720;SDS011;43562;43.064;0.160;2022-09-23T13:08:35;4.60;;;2.75;;
57720;SDS011;43562;43.064;0.160;2022-09-23T13:11:02;6.60;;;3.42;;
57720;SDS011;43562;43.064;0.160;2022-09-23T13:13:40;6.85;;;3.53;;
57720;SDS011;43562;43.064;0.160;2022-09-23T13:16:29;3.58;;;2.58;;
57720;SDS011;43562;43.064;0.160;2022-09-23T13:18:54;6.45;;;2.75;;
57720;SDS011;43562;43.064;0.160;2022-09-23T13:29:16;5.88;;;2.90;;
57720;SDS011;43562;43.064;0.160;2022-09-23T13:31:44;5.97;;;2.80;;
57720;SDS011;43562;43.064;0.160;2022-09-23T13:34:10;6.65;;;3.00;;
57720;SDS011;43562;43.064;0.160;2022-09-23T13:36:42;7.85;;;3.00;;
57720;SDS011;43562;43.064;0.160;2022-09-23T13:39:27;3.45;;;2.90;;
57720;SDS011;43562;43.064;0.160;2022-09-23T13:41:57;5.30;;;3.63;;
57720;SDS011;43562;43.064;0.160;2022-09-23T13:44:27;3.75;;;3.08;;
57720;SDS011;43562;43.064;0.160;2022-09-23T13:46:57;3.95;;;2.80;;
57720;SDS011;43562;43.064;0.160;2022-09-23T13:49:25;3.67;;;2.78;;
57720;SDS011;43562;43.064;0.160;2022-09-23T13:51:52;12.82;;;4.00;;
57720;SDS011;43562;43.064;0.160;2022-09-23T13:54:26;5.35;;;3.05;;
57720;SDS011;43562;43.064;0.160;2022-09-23T13:56:53;6.07;;;3.00;;
57720;SDS011;43562;43.064;0.160;2022-09-23T14:01:49;6.63;;;3.08;;
57720;SDS011;43562;43.064;0.160;2022-09-23T14:04:22;4.78;;;3.03;;
57720;SDS011;43562;43.064;0.160;2022-09-23T14:06:49;3.55;;;2.67;;
57720;SDS011;43562;43.064;0.160;2022-09-23T14:09:21;7.90;;;3.00;;
57720;SDS011;43562;43.064;0.160;2022-09-23T14:11:48;4.55;;;2.78;;
57720;SDS011;43562;43.064;0.160;2022-09-23T14:14:15;9.10;;;2.60;;
57720;SDS011;43562;43.064;0.160;2022-09-23T14:16:42;7.80;;;2.55;;
57720;SDS011;43562;43.064;0.160;2022-09-23T14:19:12;4.78;;;2.58;;
57720;SDS011;43562;43.064;0.160;2022-09-23T14:21:40;6.05;;;3.00;;
57720;SDS011;43562;43.064;0.160;2022-09-23T14:26:43;4.72;;;2.42;;
57720;SDS011;43562;43.064;0.160;2022-09-23T14:29:14;3.60;;;2.70;;
57720;SDS011;43562;43.064;0.160;2022-09-23T14:31:43;4.10;;;2.88;;
57720;SDS011;43562;43.064;0.160;2022-09-23T14:40:01;6.22;;;3.20;;
57720;SDS011;43562;43.064;0.160;2022-09-23T14:42:28;5.18;;;3.03;;
57720;SDS011;43562;43.064;0.160;2022-09-23T14:44:56;7.45;;;2.92;;
57720;SDS011;43562;43.064;0.160;2022-09-23T14:47:22;5.07;;;2.70;;
57720;SDS011;43562;43.064;0.160;2022-09-23T14:49:49;4.65;;;2.67;;
57720;SDS011;43562;43.064;0.160;2022-09-23T14:52:46;5.95;;;2.95;;
57720;SDS011;43562;43.064;0.160;2022-09-23T14:55:16;7.60;;;3.08;;
57720;SDS011;43562;43.064;0.160;2022-09-23T14:57:42;2.90;;;2.42;;
57720;SDS011;43562;43.064;0.160;2022-09-23T15:02:40;5.75;;;3.05;;
57720;SDS011;43562;43.064;0.160;2022-09-23T15:07:34;3.78;;;2.85;;
57720;SDS011;43562;43.064;0.160;2022-09-23T15:10:01;6.63;;;2.22;;
57720;SDS011;43562;43.064;0.160;2022-09-23T15:12:28;6.35;;;2.72;;
57720;SDS011;43562;43.064;0.160;2022-09-23T15:14:54;4.93;;;2.50;;
57720;SDS011;43562;43.064;0.160;2022-09-23T15:19:55;7.15;;;2.50;;
57720;SDS011;43562;43.064;0.160;2022-09-23T15:22:23;7.55;;;2.80;;
57720;SDS011;43562;43.064;0.160;2022-09-23T15:24:49;3.97;;;2.80;;
57720;SDS011;43562;43.064;0.160;2022-09-23T15:29:42;5.40;;;2.80;;
57720;SDS011;43562;43.064;0.160;2022-09-23T15:32:08;5.00;;;2.45;;
57720;SDS011;43562;43.064;0.160;2022-09-23T15:34:34;4.93;;;3.00;;
57720;SDS011;43562;43.064;0.160;2022-09-23T15:37:01;9.15;;;2.67;;
57720;SDS011;43562;43.064;0.160;2022-09-23T15:39:27;6.35;;;2.58;;
57720;SDS011;43562;43.064;0.160;2022-09-23T15:41:53;4.88;;;2.28;;
57720;SDS011;43562;43.064;0.160;2022-09-23T15:44:19;6.07;;;2.83;;
57720;SDS011;43562;43.064;0.160;2022-09-23T15:46:47;11.68;;;2.50;;
57720;SDS011;43562;43.064;0.160;2022-09-23T15:51:46;6.63;;;2.40;;
57720;SDS011;43562;43.064;0.160;2022-09-23T15:54:15;5.35;;;2.67;;
57720;SDS011;43562;43.064;0.160;2022-09-23T15:56:41;3.47;;;2.78;;
57720;SDS011;43562;43.064;0.160;2022-09-23T15:59:09;5.65;;;3.20;;
57720;SDS011;43562;43.064;0.160;2022-09-23T16:01:35;3.88;;;2.78;;
57720;SDS011;43562;43.064;0.160;2022-09-23T16:04:02;5.45;;;2.58;;
57720;SDS011;43562;43.064;0.160;2022-09-23T16:06:30;4.78;;;2.42;;
57720;SDS011;43562;43.064;0.160;2022-09-23T16:09:00;9.10;;;3.22;;
57720;SDS011;43562;43.064;0.160;2022-09-23T16:11:27;10.07;;;2.78;;
57720;SDS011;43562;43.064;0.160;2022-09-23T16:13:59;4.93;;;2.40;;
57720;SDS011;43562;43.064;0.160;2022-09-23T16:16:25;5.57;;;2.47;;
57720;SDS011;43562;43.064;0.160;2022-09-23T16:18:52;4.20;;;2.38;;
57720;SDS011;43562;43.064;0.160;2022-09-23T16:21:19;2.92;;;2.58;;
57720;SDS011;43562;43.064;0.160;2022-09-23T16:23:45;3.45;;;2.35;;
57720;SDS011;43562;43.064;0.160;2022-09-23T16:26:16;5.22;;;2.47;;
57720;SDS011;43562;43.064;0.160;2022-09-23T16:28:44;6.50;;;2.72;;
57720;SDS011;43562;43.064;0.160;2022-09-23T16:31:10;5.40;;;2.92;;
57720;SDS011;43562;43.064;0.160;2022-09-23T16:33:38;4.20;;;2.75;;
57720;SDS011;43562;43.064;0.160;2022-09-23T16:36:04;4.95;;;2.70;;
57720;SDS011;43562;43.064;0.160;2022-09-23T16:38:31;6.45;;;2.67;;
57720;SDS011;43562;43.064;0.160;2022-09-23T16:40:57;5.38;;;2.58;;
57720;SDS011;43562;43.064;0.160;2022-09-23T16:43:25;9.02;;;3.00;;
57720;SDS011;43562;43.064;0.160;2022-09-23T16:45:55;8.13;;;2.88;;
57720;SDS011;43562;43.064;0.160;2022-09-23T16:48:21;6.35;;;2.70;;
57720;SDS011;43562;43.064;0.160;2022-09-23T16:50:49;6.97;;;2.70;;
57720;SDS011;43562;43.064;0.160;2022-09-23T16:53:17;6.00;;;3.13;;
57720;SDS011;43562;43.064;0.160;2022-09-23T16:55:43;4.05;;;2.75;;
57720;SDS011;43562;43.064;0.160;2022-09-23T16:58:10;6.40;;;2.78;;
57720;SDS011;43562;43.064;0.160;2022-09-23T17:00:36;7.57;;;2.97;;
57720;SDS011;43562;43.064;0.160;2022-09-23T17:03:20;4.50;;;3.28;;
57720;SDS011;43562;43.064;0.160;2022-09-23T17:06:05;8.75;;;2.90;;
57720;SDS011;43562;43.064;0.160;2022-09-23T17:08:31;6.97;;;2.90;;
57720;SDS011;43562;43.064;0.160;2022-09-23T17:10:58;3.35;;;2.63;;
57720;SDS011;43562;43.064;0.160;2022-09-23T17:13:27;5.85;;;3.10;;
57720;SDS011;43562;43.064;0.160;2022-09-23T17:15:54;7.43;;;3.22;;
57720;SDS011;43562;43.064;0.160;2022-09-23T17:18:20;5.30;;;2.88;;
57720;SDS011;43562;43.064;0.160;2022-09-23T17:20:59;9.20;;;3.53;;
57720;SDS011;43562;43.064;0.160;2022-09-23T17:23:26;7.63;;;3.55;;
57720;SDS011;43562;43.064;0.160;2022-09-23T17:25:52;5.82;;;2.75;;
57720;SDS011;43562;43.064;0.160;2022-09-23T17:28:19;6.32;;;3.40;;
57720;SDS011;43562;43.064;0.160;2022-09-23T17:30:45;5.32;;;3.40;;
57720;SDS011;43562;43.064;0.160;2022-09-23T17:33:11;9.30;;;3.30;;
57720;SDS011;43562;43.064;0.160;2022-09-23T17:35:38;3.70;;;3.20;;
57720;SDS011;43562;43.064;0.160;2022-09-23T17:38:04;5.47;;;2.42;;
57720;SDS011;43562;43.064;0.160;2022-09-23T17:40:30;4.32;;;3.10;;
57720;SDS011;43562;43.064;0.160;2022-09-23T17:42:56;3.80;;;3.03;;
57720;SDS011;43562;43.064;0.160;2022-09-23T17:45:24;5.13;;;2.70;;
57720;SDS011;43562;43.064;0.160;2022-09-23T17:47:50;8.95;;;2.45;;
57720;SDS011;43562;43.064;0.160;2022-09-23T17:50:19;4.32;;;3.05;;
57720;SDS011;43562;43.064;0.160;2022-09-23T17:52:46;7.78;;;3.10;;